首页
METAR-TAF:

METAR-TAF

机场 :

萨尔茨堡沃尔夫冈·阿马多伊斯·莫扎特机场

萨尔茨堡, 奥地利

纬度: 47-48N, 经度: 013-00E, 海拔: 430米

当前天气观测

该预报发布于31分钟前的06:50 UTC
风速3节,风向北转西北,在西转西北北转东北之间变化
温度 8°C
湿度 93%
气压 1012 hPa
能见度10公里或以上
少量云层高于12000英尺
散云层高于30000英尺

METAR: LOWS 200650Z 34003KT 300V020 9999 FEW120 SCT300 08/07 Q1012 NOSIG

时间: 09:21 (07:21 UTC)

预报

该预报发布于2小时和6分钟前的05:15 UTC
预报有效从20日的 06点(UTC)到 21日的 06点(UTC)
风速5节,风向南转南东
能见度10公里或以上
1500米以下无云,无积雨云
几率 40% :
短暂存在
从 20日的 06点(UTC)到 20日的 08点(UTC)
风速1节,风向多变
能見度: 0600
少量云层高于200英尺
多云层高于30000英尺
碎片雾
短暂存在
从 20日的 10点(UTC)到 20日的 17点(UTC)
风速6节,风向北转东北
几率 30% :
短暂存在
从 21日的 00点(UTC)到 21日的 06点(UTC)
风速1节,风向多变
能見度: 1200

TAF: LOWS 200515Z 2006/2106 15005KT CAVOK TX23/2014Z TN08/2006Z PROB40 TEMPO 2006/2008 VRB01KT 0600 BCFG FEW002 BKN300 TEMPO 2010/2017 03006KT PROB30 TEMPO 2100/2106 VRB01KT 1200 NSC

超过4000个机场的气象观测和天气预报(METAR&TAF报告)。

可查询的气象台以黄色和红色小点在地图上表示。

将鼠标移到小点上方,可查看气象台名称。

然后点击查看天气观测和预报。

如需切换地图:点击带黑十字的绿色按钮放大地图;点击带横线的绿色按钮缩小地图;或者点击绿色箭头查看邻近地区的地图。


METAR-TAF: